Meleq — TCA4440 — position and weather

sailwx.info

Track history (hours):
 
Tides and Currents Weather Stations Pressure Air Temp Water Temp Dewpoint Dewpoint Depression Visibility Wind Speed Wind Dir Waves Ship Positions

Meleq

Last reported at 2017-Dec-10 17:04 UTC. Time now 2017-Dec-14 02:42 UTC.
Position N 37°00' E 023°40'.

Length 210 m; draft 6.9 m.

Type: Ship (hazmat cat A). MMSI: 271044674.

Date/timePositionNaut miles runAvg speedWind from/ knotsBaromVisibWave heightAir tempDewpointWater temp
2017-Dec-10 17:04N 37°00' E 023°40'420.7
2017-Dec-10 16:52N 37°04' E 023°43'720.5
2017-Dec-10 16:30N 37°10' E 023°48'1121.2
2017-Dec-10 15:59N 37°19' E 023°55'1021.0
2017-Dec-10 15:30N 37°28' E 024°02'1020.7
2017-Dec-10 15:00N 37°36' E 024°09'1020.8
2017-Dec-10 14:30N 37°45' E 024°17'1121.2
2017-Dec-10 14:00N 37°51' E 024°28'2820.5
2017-Dec-10 12:40N 38°12' E 024°51'  
2017-Dec-07 22:49N 37°49' E 024°34'820.6
2017-Dec-07 22:26N 37°42' E 024°29'820.2
2017-Dec-07 22:00N 37°34' E 024°24'1020.1
2017-Dec-07 21:31N 37°26' E 024°17'1020.3
2017-Dec-07 21:00N 37°18' E 024°08'1020.2
2017-Dec-07 20:30N 37°10' E 024°01'1020.1
2017-Dec-07 20:01N 37°02' E 023°53'1320.1
2017-Dec-07 19:21N 36°52' E 023°43'2920.1
2017-Dec-07 17:55N 36°30' E 023°20'  
2017-Dec-03 19:01N 36°52' E 023°34'019.2
2017-Dec-03 19:00N 36°52' E 023°34'1019.9
2017-Dec-03 18:29N 37°01' E 023°41'919.8
2017-Dec-03 18:00N 37°09' E 023°47'1020.1
2017-Dec-03 17:30N 37°17' E 023°54'1020.0
2017-Dec-03 17:00N 37°26' E 024°01'1019.8
2017-Dec-03 16:30N 37°34' E 024°08'1219.9
2017-Dec-03 15:54N 37°44' E 024°16'820.0
2017-Dec-03 15:30N 37°49' E 024°24'1019.8
2017-Dec-03 15:00N 37°55' E 024°33'  
2017-Nov-30 23:42N 37°57' E 024°39'421.3
2017-Nov-30 23:30N 37°54' E 024°37'1020.7
2017-Nov-30 23:00N 37°45' E 024°31'1020.8
2017-Nov-30 22:30N 37°36' E 024°24'1121.1
2017-Nov-30 22:01N 37°27' E 024°17'1020.6
2017-Nov-30 21:30N 37°19' E 024°09'1021.0
2017-Nov-30 21:01N 37°10' E 024°01'1020.8
2017-Nov-30 20:31N 37°02' E 023°53'1020.8
2017-Nov-30 20:01N 36°54' E 023°46'1120.6
2017-Nov-30 19:30N 36°45' E 023°38'1120.4
2017-Nov-30 18:57N 36°37' E 023°28'2818.8
2017-Nov-30 17:27N 36°25' E 022°57'  
Track history (hours):
 
Tides and Currents Weather Stations Pressure Air Temp Water Temp Dewpoint Dewpoint Depression Visibility Wind Speed Wind Dir Waves Ship Positions

Meleq

Last reported at 2017-Dec-10 17:04 UTC. Time now 2017-Dec-14 02:42 UTC.
Position N 37°00' E 023°40'.

Length 210 m; draft 6.9 m.

Type: Ship (hazmat cat A). MMSI: 271044674.

Date/timePositionNaut miles runAvg speedWind from/ knotsBaromVisibWave heightAir tempDewpointWater temp
2017-Dec-10 17:04N 37°00' E 023°40'420.7
2017-Dec-10 16:52N 37°04' E 023°43'720.5
2017-Dec-10 16:30N 37°10' E 023°48'1121.2
2017-Dec-10 15:59N 37°19' E 023°55'1021.0
2017-Dec-10 15:30N 37°28' E 024°02'1020.7
2017-Dec-10 15:00N 37°36' E 024°09'1020.8
2017-Dec-10 14:30N 37°45' E 024°17'1121.2
2017-Dec-10 14:00N 37°51' E 024°28'2820.5
2017-Dec-10 12:40N 38°12' E 024°51'  
2017-Dec-07 22:49N 37°49' E 024°34'820.6
2017-Dec-07 22:26N 37°42' E 024°29'820.2
2017-Dec-07 22:00N 37°34' E 024°24'1020.1
2017-Dec-07 21:31N 37°26' E 024°17'1020.3
2017-Dec-07 21:00N 37°18' E 024°08'1020.2
2017-Dec-07 20:30N 37°10' E 024°01'1020.1
2017-Dec-07 20:01N 37°02' E 023°53'1320.1
2017-Dec-07 19:21N 36°52' E 023°43'2920.1
2017-Dec-07 17:55N 36°30' E 023°20'  
2017-Dec-03 19:01N 36°52' E 023°34'019.2
2017-Dec-03 19:00N 36°52' E 023°34'1019.9
2017-Dec-03 18:29N 37°01' E 023°41'919.8
2017-Dec-03 18:00N 37°09' E 023°47'1020.1
2017-Dec-03 17:30N 37°17' E 023°54'1020.0
2017-Dec-03 17:00N 37°26' E 024°01'1019.8
2017-Dec-03 16:30N 37°34' E 024°08'1219.9
2017-Dec-03 15:54N 37°44' E 024°16'820.0
2017-Dec-03 15:30N 37°49' E 024°24'1019.8
2017-Dec-03 15:00N 37°55' E 024°33'  
2017-Nov-30 23:42N 37°57' E 024°39'421.3
2017-Nov-30 23:30N 37°54' E 024°37'1020.7
2017-Nov-30 23:00N 37°45' E 024°31'1020.8
2017-Nov-30 22:30N 37°36' E 024°24'1121.1
2017-Nov-30 22:01N 37°27' E 024°17'1020.6
2017-Nov-30 21:30N 37°19' E 024°09'1021.0
2017-Nov-30 21:01N 37°10' E 024°01'1020.8
2017-Nov-30 20:31N 37°02' E 023°53'1020.8
2017-Nov-30 20:01N 36°54' E 023°46'1120.6
2017-Nov-30 19:30N 36°45' E 023°38'1120.4
2017-Nov-30 18:57N 36°37' E 023°28'2818.8
2017-Nov-30 17:27N 36°25' E 022°57'  

Dump ship's entire track history